Time;durP1;ratioP1;P1;durP2;ratioP2;P2;SDS_P1;SDS_P2;PMS_P1;PMS_P2;Temp;Humidity;BMP_temperature;BMP_pressure;BME280_temperature;BME280_humidity;BME280_pressure;Samples;Min_cycle;Max_cycle;Signal;HPM_P1;HPM_P2
2023/04/08 00:00:19;;;;;;;29.13;20.52;;;;;;;7.08;48.50;95042.06;5025567;28;20100;-88
2023/04/08 00:02:45;;;;;;;29.33;20.63;;;;;;;7.07;48.23;95040.50;5025227;28;20037;-90
2023/04/08 00:05:10;;;;;;;31.52;22.17;;;;;;;7.05;48.03;95040.91;5023773;28;20021;-90
2023/04/08 00:07:36;;;;;;;32.45;22.27;;;;;;;7.06;48.05;95041.69;5028857;28;20026;-89
2023/04/08 00:10:02;;;;;;;34.70;21.83;;;;;;;7.05;48.27;95043.63;5029192;28;20479;-89
2023/04/08 00:12:27;;;;;;;32.35;22.85;;;;;;;7.03;48.64;95035.09;5030277;28;20108;-89
2023/04/08 00:14:53;;;;;;;30.92;21.70;;;;;;;7.03;48.86;95035.09;5028970;28;20484;-90
2023/04/08 00:17:18;;;;;;;34.20;22.52;;;;;;;7.02;49.10;95039.00;5029420;28;20101;-89
2023/04/08 00:19:43;;;;;;;32.53;23.00;;;;;;;7.02;49.04;95036.28;5031704;28;20080;-89
2023/04/08 00:22:09;;;;;;;33.25;23.73;;;;;;;7.05;49.14;95034.66;5029156;28;20104;-89
2023/04/08 00:24:35;;;;;;;37.40;24.85;;;;;;;7.02;49.44;95027.31;5013942;28;20026;-89
2023/04/08 00:27:01;;;;;;;34.55;23.92;;;;;;;7.03;49.59;95034.31;5031155;28;20336;-89
2023/04/08 00:29:27;;;;;;;33.72;24.42;;;;;;;7.02;49.64;95035.50;5029619;28;20025;-89
2023/04/08 00:31:53;;;;;;;34.80;23.80;;;;;;;7.00;49.50;95027.72;5029283;28;20057;-90
2023/04/08 00:34:18;;;;;;;35.53;24.30;;;;;;;6.99;49.49;95034.34;5029694;28;20025;-89
2023/04/08 00:36:44;;;;;;;34.75;23.95;;;;;;;6.99;49.71;95039.03;5034694;28;20086;-91
2023/04/08 00:39:10;;;;;;;34.08;23.08;;;;;;;6.98;49.85;95041.00;5031153;28;20056;-87
2023/04/08 00:41:35;;;;;;;30.92;21.88;;;;;;;6.95;50.14;95036.38;5030645;28;20025;-88
2023/04/08 00:44:01;;;;;;;34.83;21.58;;;;;;;6.94;50.17;95051.22;5038482;28;20407;-88
2023/04/08 00:46:27;;;;;;;31.42;20.17;;;;;;;6.90;50.37;95045.03;5035401;28;20376;-90
2023/04/08 00:48:53;;;;;;;27.75;20.13;;;;;;;6.90;50.35;95045.03;5011113;28;20029;-89
2023/04/08 00:51:19;;;;;;;29.85;18.85;;;;;;;6.89;50.50;95041.53;5028689;28;20029;-87
2023/04/08 00:53:44;;;;;;;21.40;17.60;;;;;;;6.85;50.46;95048.22;5027989;28;20043;-90
2023/04/08 00:56:10;;;;;;;26.75;18.25;;;;;;;6.82;50.60;95040.81;5028679;28;20026;-88
2023/04/08 00:58:36;;;;;;;26.98;20.17;;;;;;;6.82;50.67;95040.81;5030157;28;20041;-89
2023/04/08 01:01:29;;;;;;;30.88;22.48;;;;;;;6.79;50.60;95049.84;5011576;28;20448;-89
2023/04/08 01:04:27;;;;;;;33.10;21.35;;;;;;;6.76;50.29;95048.69;5030779;28;20542;-88
2023/04/08 01:07:00;;;;;;;32.78;21.95;;;;;;;6.74;50.22;95044.84;5028676;28;20079;-88
2023/04/08 01:09:29;;;;;;;31.55;21.77;;;;;;;6.73;49.98;95043.28;5010486;28;20025;-88
2023/04/08 01:11:55;;;;;;;28.95;20.65;;;;;;;6.70;49.75;95055.03;5028051;28;20093;-89
2023/04/08 01:14:23;;;;;;;33.05;20.52;;;;;;;6.67;49.76;95040.25;5026290;28;20037;-88
2023/04/08 01:16:49;;;;;;;28.70;20.15;;;;;;;6.65;49.82;95048.03;5027656;28;20025;-89
2023/04/08 01:19:35;;;;;;;28.08;20.35;;;;;;;6.62;49.76;95052.38;5026641;28;20026;-89
2023/04/08 01:22:05;;;;;;;32.40;21.70;;;;;;;6.63;49.95;95047.69;5026705;28;20049;-89
2023/04/08 01:24:32;;;;;;;25.58;18.88;;;;;;;6.59;49.78;95050.44;5027427;28;20559;-88
2023/04/08 01:27:00;;;;;;;28.13;19.75;;;;;;;6.57;49.83;95046.59;5026444;28;20017;-89
2023/04/08 01:29:26;;;;;;;28.13;20.25;;;;;;;6.56;49.78;95048.56;5034041;28;20032;-90
2023/04/08 01:31:52;;;;;;;29.23;20.10;;;;;;;6.57;50.18;95049.31;5029186;28;20037;-89
2023/04/08 01:34:18;;;;;;;29.17;19.88;;;;;;;6.53;50.13;95049.34;5040774;28;20072;-90
2023/04/08 01:36:45;;;;;;;27.80;19.15;;;;;;;6.46;50.29;95038.53;5050182;28;20025;-89
2023/04/08 01:39:11;;;;;;;26.42;18.15;;;;;;;6.54;50.28;95056.38;5046562;28;20075;-89
2023/04/08 01:41:37;;;;;;;30.67;20.42;;;;;;;6.54;50.30;95050.94;5035836;28;20179;-89
2023/04/08 01:44:03;;;;;;;32.63;20.13;;;;;;;6.52;50.59;95053.28;5030374;28;20068;-90
2023/04/08 01:46:30;;;;;;;30.40;19.95;;;;;;;6.51;50.28;95054.47;5031440;28;20083;-91
2023/04/08 01:48:56;;;;;;;29.42;19.27;;;;;;;6.51;50.47;95049.00;5010092;28;20543;-86
2023/04/08 01:51:22;;;;;;;29.33;20.88;;;;;;;6.52;50.53;95053.28;5028570;28;20061;-86
2023/04/08 01:53:47;;;;;;;30.00;20.02;;;;;;;6.53;50.53;95059.50;5026707;28;20021;-86
2023/04/08 01:56:14;;;;;;;28.25;20.17;;;;;;;6.53;50.67;95057.56;5030257;28;20052;-88
2023/04/08 01:58:42;;;;;;;30.20;21.17;;;;;;;6.50;50.52;95063.06;5027049;28;20033;-90
2023/04/08 02:01:13;;;;;;;30.92;21.80;;;;;;;6.51;50.69;95059.94;5015753;28;20095;-86
2023/04/08 02:03:41;;;;;;;28.88;21.92;;;;;;;6.50;50.79;95069.31;5034846;28;20085;-87
2023/04/08 02:06:06;;;;;;;29.15;21.83;;;;;;;6.51;50.77;95068.13;5029365;28;20029;-86
2023/04/08 02:08:35;;;;;;;30.83;21.35;;;;;;;6.49;50.91;95077.91;5030221;28;20026;-87
2023/04/08 02:11:02;;;;;;;32.63;21.70;;;;;;;6.47;50.89;95078.28;5027997;28;20033;-86
2023/04/08 02:13:29;;;;;;;28.98;20.95;;;;;;;6.49;50.93;95075.19;5027525;28;20091;-86
2023/04/08 02:16:15;;;;;;;30.23;20.63;;;;;;;6.50;51.05;95082.19;5030878;28;20036;-86
2023/04/08 02:18:49;;;;;;;29.85;21.13;;;;;;;6.49;50.84;95089.59;5026651;28;20033;-85
2023/04/08 02:21:18;;;;;;;27.88;20.83;;;;;;;6.48;50.88;95084.53;5031134;28;20094;-86
2023/04/08 02:23:49;;;;;;;33.05;20.80;;;;;;;6.47;50.92;95086.50;5029262;28;20089;-87
2023/04/08 02:26:15;;;;;;;27.88;20.38;;;;;;;6.42;50.97;95081.47;5031603;28;20025;-87
2023/04/08 02:28:41;;;;;;;28.38;19.20;;;;;;;6.44;51.15;95083.81;5032266;28;20451;-87
2023/04/08 02:31:13;;;;;;;25.35;17.98;;;;;;;6.43;51.04;95087.72;5043077;28;20025;-89
2023/04/08 02:33:40;;;;;;;23.60;17.90;;;;;;;6.44;50.89;95086.53;5048697;28;20018;-88
2023/04/08 02:36:06;;;;;;;24.73;18.55;;;;;;;6.45;51.04;95077.16;5024969;28;20034;-86
2023/04/08 02:38:32;;;;;;;25.48;17.45;;;;;;;6.41;50.90;95076.41;5042279;28;20041;-86
2023/04/08 02:40:57;;;;;;;28.40;18.17;;;;;;;6.43;50.93;95087.72;5041685;28;20033;-86
2023/04/08 02:43:31;;;;;;;26.25;18.67;;;;;;;6.42;50.94;95080.69;5046075;28;20017;-87
2023/04/08 02:45:58;;;;;;;30.50;19.38;;;;;;;6.41;50.95;95082.66;5043002;28;20068;-87
2023/04/08 02:48:23;;;;;;;28.67;18.95;;;;;;;6.40;50.94;95081.09;5043427;28;20044;-86
2023/04/08 02:50:48;;;;;;;24.63;17.63;;;;;;;6.44;50.91;95084.59;5032168;28;20033;-87
2023/04/08 02:53:14;;;;;;;28.08;19.55;;;;;;;6.43;50.73;95080.31;5030426;28;20107;-86
2023/04/08 02:55:40;;;;;;;25.05;17.42;;;;;;;6.43;50.92;95072.13;5030606;28;20053;-87
2023/04/08 02:58:05;;;;;;;29.17;19.02;;;;;;;6.42;50.92;95078.75;5027052;28;20059;-87
2023/04/08 03:00:31;;;;;;;25.67;18.10;;;;;;;6.43;50.79;95077.59;5028304;28;20205;-87
2023/04/08 03:02:56;;;;;;;24.23;16.85;;;;;;;6.44;50.71;95083.81;5026848;28;20108;-87
2023/04/08 03:05:21;;;;;;;30.80;18.42;;;;;;;6.43;50.98;95083.03;5027801;28;20099;-87
2023/04/08 03:07:47;;;;;;;24.15;18.30;;;;;;;6.42;51.09;95080.69;5027302;28;20510;-88
2023/04/08 03:10:12;;;;;;;24.92;17.23;;;;;;;6.45;50.95;95068.97;5026241;28;20404;-87
2023/04/08 03:12:38;;;;;;;27.15;17.77;;;;;;;6.45;51.02;95071.69;5027880;28;20022;-87
2023/04/08 03:15:03;;;;;;;25.58;17.58;;;;;;;6.48;51.06;95076.34;5027597;28;20067;-88
2023/04/08 03:17:32;;;;;;;25.48;17.60;;;;;;;6.46;51.18;95075.97;5028654;28;20025;-87
2023/04/08 03:19:58;;;;;;;24.58;17.80;;;;;;;6.47;51.18;95072.84;5023497;28;20092;-87
2023/04/08 03:22:23;;;;;;;28.48;18.45;;;;;;;6.48;51.20;95079.06;5026060;28;20037;-87
2023/04/08 03:24:49;;;;;;;24.10;16.98;;;;;;;6.47;51.33;95083.75;5026182;28;20021;-87
2023/04/08 03:27:14;;;;;;;23.60;17.80;;;;;;;6.48;50.96;95079.06;5031012;28;20027;-87
2023/04/08 03:29:40;;;;;;;25.33;17.65;;;;;;;6.47;50.94;95078.28;5034912;28;20033;-88
2023/04/08 03:32:05;;;;;;;27.65;17.83;;;;;;;6.46;51.17;95082.22;5027386;28;20101;-87
2023/04/08 03:34:33;;;;;;;23.70;17.48;;;;;;;6.43;51.03;95083.03;5009385;28;20038;-87
2023/04/08 03:36:58;;;;;;;24.90;17.63;;;;;;;6.44;51.22;95087.31;5023524;28;20553;-87
2023/04/08 03:39:24;;;;;;;26.42;18.08;;;;;;;6.43;51.54;95079.53;5026216;28;20033;-87
2023/04/08 03:41:49;;;;;;;22.27;17.48;;;;;;;6.44;51.41;95081.84;5023044;28;20025;-87
2023/04/08 03:44:14;;;;;;;23.92;17.23;;;;;;;6.45;51.44;95082.63;5026388;28;20496;-87
2023/04/08 03:46:40;;;;;;;24.90;17.70;;;;;;;6.42;51.65;95078.75;5025034;28;20404;-87
2023/04/08 03:49:06;;;;;;;25.70;17.90;;;;;;;6.45;51.89;95080.66;5025560;28;20116;-86
2023/04/08 03:51:31;;;;;;;24.58;18.25;;;;;;;6.44;51.72;95081.84;5024415;28;20104;-87
2023/04/08 03:53:57;;;;;;;24.42;17.08;;;;;;;6.45;51.93;95088.88;5025723;28;20033;-87
2023/04/08 03:56:23;;;;;;;28.27;18.73;;;;;;;6.46;51.94;95082.22;5026413;28;20037;-88
2023/04/08 03:58:49;;;;;;;27.90;18.80;;;;;;;6.45;52.13;95083.41;5025247;28;20041;-87
2023/04/08 04:01:15;;;;;;;25.60;18.25;;;;;;;6.45;52.07;95083.41;5026990;28;20349;-87
2023/04/08 04:03:40;;;;;;;25.33;18.20;;;;;;;6.44;52.17;95079.13;5027075;28;20574;-87
2023/04/08 04:06:06;;;;;;;27.27;19.33;;;;;;;6.46;52.16;95084.19;5028913;28;20513;-85
2023/04/08 04:08:31;;;;;;;31.70;19.52;;;;;;;6.43;52.36;95077.59;5024919;28;20037;-86
2023/04/08 04:10:58;;;;;;;26.20;19.75;;;;;;;6.43;52.26;95088.50;5031637;28;20022;-86
2023/04/08 04:13:23;;;;;;;28.02;19.52;;;;;;;6.41;52.15;95087.34;5043637;28;20030;-86
2023/04/08 04:15:49;;;;;;;33.65;18.17;;;;;;;6.38;52.26;95078.78;5034824;28;20046;-87
2023/04/08 04:18:15;;;;;;;24.98;18.67;;;;;;;6.38;52.26;95091.69;5030862;28;20052;-87
2023/04/08 04:20:41;;;;;;;26.27;18.95;;;;;;;6.35;52.29;95090.50;5007651;28;20030;-89
2023/04/08 04:23:06;;;;;;;25.55;19.30;;;;;;;6.36;52.12;95094.00;5036479;28;20022;-87
2023/04/08 04:25:32;;;;;;;25.90;18.85;;;;;;;6.37;52.31;95093.63;5030611;28;20044;-87
2023/04/08 04:27:57;;;;;;;23.92;18.20;;;;;;;6.34;52.54;95110.81;5028873;28;20025;-88
2023/04/08 04:30:23;;;;;;;27.77;18.60;;;;;;;6.31;52.37;95102.69;5026649;28;20053;-87
2023/04/08 04:32:48;;;;;;;30.80;20.92;;;;;;;6.30;52.53;95101.88;5008579;28;20040;-89
2023/04/08 04:35:14;;;;;;;30.13;19.80;;;;;;;6.33;52.66;95100.31;5033388;28;20057;-89
2023/04/08 04:37:39;;;;;;;31.98;21.13;;;;;;;6.33;52.68;95105.75;5029261;28;20096;-88
2023/04/08 04:40:05;;;;;;;37.78;23.70;;;;;;;6.30;52.38;95103.84;5028781;28;20104;-88
2023/04/08 04:42:32;;;;;;;40.72;23.00;;;;;;;6.29;52.58;95091.38;5025069;28;20032;-88
2023/04/08 04:44:57;;;;;;;37.17;24.30;;;;;;;6.28;52.73;95095.28;5025363;28;20403;-88
2023/04/08 04:47:23;;;;;;;40.80;25.35;;;;;;;6.26;52.65;95097.66;5024890;28;20029;-88
2023/04/08 04:49:49;;;;;;;36.53;23.90;;;;;;;6.26;53.08;95098.41;5028330;28;20041;-88
2023/04/08 04:52:14;;;;;;;35.67;23.17;;;;;;;6.28;53.23;95100.75;5028909;28;20456;-88
2023/04/08 04:54:40;;;;;;;34.80;22.67;;;;;;;6.28;53.45;95095.28;5025559;28;20025;-87
2023/04/08 04:57:05;;;;;;;31.25;20.50;;;;;;;6.27;53.70;95094.50;5030101;28;20463;-88
2023/04/08 04:59:30;;;;;;;30.52;20.42;;;;;;;6.29;53.42;95105.00;5028478;28;20071;-87
2023/04/08 05:01:56;;;;;;;26.30;19.63;;;;;;;6.33;53.76;95103.03;5029241;28;20025;-87
2023/04/08 05:04:22;;;;;;;28.27;20.05;;;;;;;6.33;53.61;95105.75;5027662;28;20061;-86
2023/04/08 05:06:48;;;;;;;26.55;19.80;;;;;;;6.36;53.91;95102.22;5027047;28;20064;-86
2023/04/08 05:09:13;;;;;;;33.10;21.92;;;;;;;6.38;53.65;95100.63;5026815;28;20884;-86
2023/04/08 05:11:39;;;;;;;33.22;21.30;;;;;;;6.42;54.09;95102.53;5027956;28;20523;-86
2023/04/08 05:14:05;;;;;;;36.95;23.35;;;;;;;6.46;53.78;95106.78;5028413;28;20084;-86
2023/04/08 05:16:31;;;;;;;30.80;22.15;;;;;;;6.45;53.74;95105.25;5029022;28;20099;-87
2023/04/08 05:18:56;;;;;;;30.35;22.88;;;;;;;6.51;53.80;95109.09;5041283;28;20037;-86
2023/04/08 05:21:22;;;;;;;35.90;23.00;;;;;;;6.54;53.59;95100.09;5028727;28;20105;-86
2023/04/08 05:23:49;;;;;;;32.33;22.40;;;;;;;6.62;53.46;95107.03;5029936;28;20034;-87
2023/04/08 05:26:15;;;;;;;33.20;24.50;;;;;;;6.67;53.46;95113.22;5028927;28;20504;-86
2023/04/08 05:28:40;;;;;;;32.25;22.45;;;;;;;6.72;53.15;95105.34;5032522;28;20243;-86
2023/04/08 05:31:06;;;;;;;35.47;24.80;;;;;;;6.78;53.05;95103.72;5031827;28;20022;-86
2023/04/08 05:33:31;;;;;;;38.90;23.85;;;;;;;6.84;52.81;95110.28;5029981;28;20507;-89
2023/04/08 05:35:57;;;;;;;39.55;25.50;;;;;;;6.88;52.69;95112.97;5031995;28;20041;-87
2023/04/08 05:38:22;;;;;;;39.90;26.42;;;;;;;6.94;52.62;95100.44;5027842;28;20033;-87
2023/04/08 05:40:47;;;;;;;35.28;23.58;;;;;;;6.98;52.36;95112.06;5028804;28;20113;-87
2023/04/08 05:43:13;;;;;;;32.05;23.77;;;;;;;7.03;52.39;95114.34;5028210;28;20028;-86
2023/04/08 05:45:38;;;;;;;29.70;21.83;;;;;;;6.99;52.55;95108.16;5030855;28;20411;-86
2023/04/08 05:48:03;;;;;;;29.73;20.88;;;;;;;7.04;52.35;95106.94;5027496;28;20495;-87
2023/04/08 05:50:29;;;;;;;28.58;21.80;;;;;;;7.12;52.01;95102.94;5027943;28;20029;-86
2023/04/08 05:52:54;;;;;;;33.20;21.90;;;;;;;7.16;51.92;95104.41;5028309;28;20065;-88
2023/04/08 05:55:20;;;;;;;32.13;22.10;;;;;;;7.13;51.96;95097.03;5029714;28;20033;-80
2023/04/08 05:57:45;;;;;;;29.20;20.42;;;;;;;7.27;51.60;95100.78;5026859;28;20053;-82
2023/04/08 06:00:11;;;;;;;29.55;21.08;;;;;;;7.34;51.28;95098.72;5026627;28;20075;-80
2023/04/08 06:02:36;;;;;;;32.40;22.15;;;;;;;7.43;51.38;95095.47;5026243;28;20440;-80
2023/04/08 06:05:02;;;;;;;33.72;22.73;;;;;;;7.49;51.00;95095.78;5026166;28;20108;-80
2023/04/08 06:07:28;;;;;;;34.22;22.52;;;;;;;7.54;50.87;95103.53;5027252;28;20524;-80
2023/04/08 06:09:54;;;;;;;29.17;20.30;;;;;;;7.59;50.25;95101.09;5026566;28;20030;-79
2023/04/08 06:12:19;;;;;;;36.42;21.85;;;;;;;7.64;50.38;95097.91;5029589;28;20021;-80
2023/04/08 06:14:45;;;;;;;29.98;20.70;;;;;;;7.64;49.74;95095.16;5030212;28;20037;-79
2023/04/08 06:17:10;;;;;;;31.50;20.42;;;;;;;7.76;49.77;95098.53;5026641;28;20030;-80
2023/04/08 06:19:36;;;;;;;33.42;22.58;;;;;;;7.83;49.52;95099.16;5027330;28;20423;-79
2023/04/08 06:22:01;;;;;;;31.27;22.55;;;;;;;7.93;49.46;95097.47;5026027;28;20419;-79
2023/04/08 06:24:28;;;;;;;31.55;22.20;;;;;;;7.99;49.28;95099.31;5027268;28;20017;-79
2023/04/08 06:26:53;;;;;;;32.47;23.30;;;;;;;8.07;49.06;95099.19;5024970;28;20087;-80
2023/04/08 06:29:20;;;;;;;32.90;22.67;;;;;;;8.03;49.15;95102.00;5027225;28;20032;-80
2023/04/08 06:31:46;;;;;;;30.50;23.58;;;;;;;8.09;48.97;95100.34;5024906;28;20052;-81
2023/04/08 06:34:11;;;;;;;30.83;22.25;;;;;;;8.13;48.84;95098.28;5026153;28;20406;-82
2023/04/08 06:36:37;;;;;;;32.25;23.33;;;;;;;8.32;48.67;95104.25;5026405;28;20036;-81
2023/04/08 06:39:03;;;;;;;30.13;20.58;;;;;;;8.39;48.35;95113.16;5025585;28;20083;-82
2023/04/08 06:41:29;;;;;;;29.45;21.77;;;;;;;8.48;48.18;95109.84;5027150;28;20723;-82
2023/04/08 06:43:54;;;;;;;29.75;20.88;;;;;;;8.57;48.40;95107.34;5027423;28;20025;-83
2023/04/08 06:46:20;;;;;;;29.52;21.40;;;;;;;8.65;48.02;95102.50;5026086;28;20044;-82
2023/04/08 06:48:46;;;;;;;20.75;16.02;;;;;;;8.67;47.62;95109.13;5025799;28;20109;-82
2023/04/08 06:51:11;;;;;;;18.58;14.02;;;;;;;8.74;47.29;95108.97;5026255;28;20044;-82
2023/04/08 06:53:36;;;;;;;19.73;13.93;;;;;;;8.82;47.27;95106.88;5025794;28;20057;-82
2023/04/08 06:56:02;;;;;;;17.23;13.55;;;;;;;8.85;47.36;95094.31;5024035;28;20057;-83
2023/04/08 06:58:28;;;;;;;17.00;13.57;;;;;;;8.89;47.27;95104.00;5025927;28;20566;-83
2023/04/08 07:00:57;;;;;;;18.55;14.38;;;;;;;8.94;47.31;95099.97;5024961;28;20104;-82
2023/04/08 07:03:22;;;;;;;17.98;14.35;;;;;;;8.99;47.32;95103.00;5026281;28;20495;-82
2023/04/08 07:05:48;;;;;;;21.77;14.80;;;;;;;9.01;47.49;95097.13;5025921;28;20025;-82
2023/04/08 07:08:13;;;;;;;18.17;14.45;;;;;;;9.07;47.52;95108.38;5038230;28;20021;-82
2023/04/08 07:10:39;;;;;;;20.75;15.02;;;;;;;9.12;47.45;95103.16;5024468;28;20091;-82
2023/04/08 07:13:04;;;;;;;18.98;14.00;;;;;;;9.05;47.35;95104.06;5023703;28;20037;-80
2023/04/08 07:15:30;;;;;;;20.15;15.43;;;;;;;9.13;47.54;95104.69;5024445;28;20060;-86
2023/04/08 07:17:55;;;;;;;20.83;14.40;;;;;;;9.24;47.30;95109.97;5023299;28;20022;-86
2023/04/08 07:20:22;;;;;;;20.63;15.27;;;;;;;9.18;47.49;95123.41;5025394;28;20392;-86
2023/04/08 07:22:47;;;;;;;18.30;14.18;;;;;;;9.21;47.16;95117.06;5023819;28;20021;-87
2023/04/08 07:25:13;;;;;;;23.58;14.73;;;;;;;9.25;46.97;95122.47;5026054;28;20373;-88
2023/04/08 07:27:38;;;;;;;18.23;13.80;;;;;;;9.30;46.88;95120.03;5025937;28;20171;-87
2023/04/08 07:30:04;;;;;;;21.30;14.20;;;;;;;9.29;46.71;95110.25;5025755;28;20025;-87
2023/04/08 07:32:30;;;;;;;23.27;15.00;;;;;;;9.35;46.75;95117.94;5025260;28;20018;-89
2023/04/08 07:34:57;;;;;;;17.88;14.55;;;;;;;9.38;46.61;95128.09;5025750;28;20026;-88
2023/04/08 07:37:23;;;;;;;19.25;14.68;;;;;;;9.29;46.43;95129.44;5026697;28;20030;-88
2023/04/08 07:39:48;;;;;;;17.60;14.20;;;;;;;9.15;46.70;95135.22;5025235;28;20454;-87
2023/04/08 07:42:14;;;;;;;18.08;14.57;;;;;;;9.18;47.16;95137.13;5025709;28;20175;-86
2023/04/08 07:44:39;;;;;;;19.83;14.85;;;;;;;9.29;47.11;95136.91;5024986;28;20038;-82
2023/04/08 07:47:05;;;;;;;16.45;13.77;;;;;;;9.47;46.93;95129.06;5025303;28;20028;-82
2023/04/08 07:49:30;;;;;;;19.88;14.05;;;;;;;9.61;46.63;95138.97;5025053;28;20718;-82
2023/04/08 07:51:56;;;;;;;19.83;15.27;;;;;;;9.67;46.46;95141.97;5023362;28;20108;-81
2023/04/08 07:54:21;;;;;;;21.05;14.93;;;;;;;9.58;46.12;95139.81;5024999;28;20029;-82
2023/04/08 07:56:47;;;;;;;17.98;14.05;;;;;;;9.55;46.55;95141.44;5024678;28;20025;-81
2023/04/08 07:59:12;;;;;;;20.13;15.32;;;;;;;9.63;46.67;95136.56;5023827;28;20671;-81
2023/04/08 08:01:38;;;;;;;18.80;13.82;;;;;;;9.73;46.59;95146.53;5028904;28;20109;-82
2023/04/08 08:04:03;;;;;;;17.70;13.75;;;;;;;9.79;46.71;95158.56;5032339;28;20510;-82
2023/04/08 08:06:31;;;;;;;19.88;14.85;;;;;;;9.87;46.40;95161.94;5025143;28;20411;-83
2023/04/08 08:08:57;;;;;;;18.63;13.68;;;;;;;9.92;46.43;95161.44;5023618;28;20033;-85
2023/04/08 08:11:22;;;;;;;19.50;13.75;;;;;;;10.01;46.53;95160.81;5023242;28;20037;-85
2023/04/08 08:13:47;;;;;;;16.20;13.25;;;;;;;10.02;46.53;95152.16;5024702;28;20470;-84
2023/04/08 08:16:13;;;;;;;16.75;14.35;;;;;;;10.10;46.61;95148.06;5023587;28;20112;-83
2023/04/08 08:18:39;;;;;;;17.92;13.60;;;;;;;10.18;46.65;95132.16;5024409;28;20026;-84
2023/04/08 08:21:05;;;;;;;17.65;13.63;;;;;;;10.27;46.59;95142.59;5023133;28;20033;-84
2023/04/08 08:23:31;;;;;;;18.70;14.05;;;;;;;10.37;46.34;95144.28;5024132;28;20419;-81
2023/04/08 08:26:05;;;;;;;19.23;14.60;;;;;;;10.49;46.31;95154.56;5023922;28;20025;-82
2023/04/08 08:28:31;;;;;;;19.17;14.07;;;;;;;10.61;46.29;95153.91;5024849;28;20029;-84
2023/04/08 08:30:56;;;;;;;18.83;14.02;;;;;;;10.73;46.07;95155.16;5027233;28;20045;-84
2023/04/08 08:33:22;;;;;;;18.95;13.90;;;;;;;10.84;45.54;95147.41;5028527;28;20044;-84
2023/04/08 08:35:47;;;;;;;15.45;12.93;;;;;;;10.60;45.70;95162.56;5028178;28;20034;-83
2023/04/08 08:38:13;;;;;;;15.13;11.90;;;;;;;10.49;45.29;95156.56;5028667;28;20538;-83
2023/04/08 08:40:38;;;;;;;17.80;13.18;;;;;;;10.50;45.64;95155.38;5026970;28;20564;-85
2023/04/08 08:43:04;;;;;;;16.80;12.82;;;;;;;10.61;45.46;95156.66;5031586;28;20052;-84
2023/04/08 08:45:29;;;;;;;17.45;13.00;;;;;;;10.81;45.37;95150.25;5026636;28;20021;-85
2023/04/08 08:47:56;;;;;;;20.08;13.30;;;;;;;10.97;45.17;95141.19;5028455;28;20381;-84
2023/04/08 08:50:21;;;;;;;15.25;13.02;;;;;;;11.10;44.87;95150.25;5026812;28;20032;-87
2023/04/08 08:52:48;;;;;;;16.85;13.32;;;;;;;11.08;44.96;95147.94;5027911;28;20049;-87
2023/04/08 08:55:14;;;;;;;23.35;15.00;;;;;;;11.26;44.04;95152.19;5030243;28;20522;-87
2023/04/08 08:57:39;;;;;;;18.63;14.43;;;;;;;11.38;44.28;95163.22;5039417;28;20057;-86
2023/04/08 09:00:06;;;;;;;15.88;13.10;;;;;;;11.40;43.91;95157.28;5032470;28;20036;-80
2023/04/08 09:02:31;;;;;;;20.95;14.40;;;;;;;11.55;43.56;95146.63;5026071;28;20029;-80
2023/04/08 09:05:04;;;;;;;23.05;14.93;;;;;;;11.52;43.67;95153.78;5027872;28;20051;-83
2023/04/08 09:07:35;;;;;;;20.67;13.30;;;;;;;11.49;43.39;95146.41;5026685;28;20052;-85
2023/04/08 09:10:00;;;;;;;17.85;12.93;;;;;;;11.58;43.49;95151.25;5026253;28;20029;-81
2023/04/08 09:12:27;;;;;;;21.52;13.50;;;;;;;11.88;43.09;95152.78;5009977;28;20033;-83
2023/04/08 09:15:22;;;;;;;16.98;11.98;;;;;;;11.76;42.07;95156.25;5009532;28;20494;-82
2023/04/08 09:17:47;;;;;;;17.95;12.65;;;;;;;12.10;41.86;95148.16;5018371;28;20029;-78
2023/04/08 09:20:14;;;;;;;17.35;12.07;;;;;;;11.92;41.61;95151.44;5027723;28;20032;-76
2023/04/08 09:22:59;;;;;;;16.83;12.65;;;;;;;12.44;41.35;95152.16;5027544;28;20793;-78
2023/04/08 09:25:26;;;;;;;18.08;13.23;;;;;;;12.67;41.21;95151.81;5039902;28;20036;-88
2023/04/08 09:27:52;;;;;;;17.35;13.68;;;;;;;12.86;41.16;95143.72;5031408;28;20092;-89
2023/04/08 09:30:19;;;;;;;16.75;13.38;;;;;;;13.20;40.80;95151.97;5015600;28;20021;-86
2023/04/08 09:32:57;;;;;;;16.33;13.25;;;;;;;13.39;40.25;95149.34;5028540;28;20033;-83
2023/04/08 09:35:23;;;;;;;18.00;13.57;;;;;;;13.43;39.27;95139.72;5027684;28;20108;-83
2023/04/08 09:37:49;;;;;;;19.67;14.07;;;;;;;13.77;38.40;95144.38;5025868;28;20053;-86
2023/04/08 09:40:15;;;;;;;17.85;13.05;;;;;;;14.11;38.56;95148.22;5026882;28;20064;-81
2023/04/08 09:42:44;;;;;;;19.05;14.60;;;;;;;14.25;37.96;95136.59;5026316;28;20156;-85
2023/04/08 09:45:11;;;;;;;16.27;12.93;;;;;;;14.17;37.18;95134.56;5026426;28;20030;-88
2023/04/08 09:47:59;;;;;;;20.65;13.13;;;;;;;14.50;37.21;95134.84;5026353;28;20324;-80
2023/04/08 09:50:38;;;;;;;15.43;12.20;;;;;;;14.62;36.21;95125.63;5025740;28;20030;-82
2023/04/08 09:53:18;;;;;;;17.75;12.90;;;;;;;14.85;37.10;95127.03;5039375;28;20108;-79
2023/04/08 09:55:47;;;;;;;17.70;12.55;;;;;;;15.52;37.20;95126.09;5027134;28;20037;-76
2023/04/08 09:58:18;;;;;;;16.50;12.40;;;;;;;15.96;37.54;95119.41;5025324;28;20033;-78
2023/04/08 10:00:51;;;;;;;15.85;12.38;;;;;;;16.55;36.39;95114.94;5026086;28;20052;-79
2023/04/08 10:03:28;;;;;;;17.90;12.93;;;;;;;17.06;34.83;95116.03;5025114;28;20079;-78
2023/04/08 10:05:55;;;;;;;18.10;12.98;;;;;;;17.35;33.71;95110.53;5025961;28;20033;-78
2023/04/08 10:08:21;;;;;;;18.23;11.82;;;;;;;17.76;32.73;95110.75;5025632;28;20040;-79
2023/04/08 10:10:47;;;;;;;14.57;11.18;;;;;;;18.33;32.69;95113.19;5025219;28;20106;-76
2023/04/08 10:13:13;;;;;;;12.65;10.27;;;;;;;18.82;31.55;95101.25;5026589;28;20657;-90
2023/04/08 10:15:41;;;;;;;14.52;10.85;;;;;;;19.21;28.69;95116.88;5011141;28;20027;-90
2023/04/08 10:18:10;;;;;;;13.15;9.85;;;;;;;19.49;28.71;95108.81;5028583;28;20026;-90
2023/04/08 10:20:35;;;;;;;13.40;10.85;;;;;;;19.40;28.81;95106.22;5026910;28;20084;-84
2023/04/08 10:23:12;;;;;;;14.55;10.55;;;;;;;19.63;28.52;95113.56;5027235;28;20392;-80
2023/04/08 10:25:46;;;;;;;12.43;9.93;;;;;;;19.87;28.22;95102.13;5024809;28;20111;-81
2023/04/08 10:28:11;;;;;;;13.73;11.00;;;;;;;20.07;28.25;95109.63;5025275;28;20030;-81
2023/04/08 10:30:37;;;;;;;13.95;11.55;;;;;;;19.89;26.88;95105.94;5027022;28;20025;-87
2023/04/08 10:33:18;;;;;;;14.07;10.60;;;;;;;19.66;27.47;95106.25;5026884;28;20080;-78
2023/04/08 10:35:54;;;;;;;13.68;10.43;;;;;;;19.05;28.03;95098.75;5025588;28;20060;-78
2023/04/08 10:38:20;;;;;;;13.52;11.10;;;;;;;19.39;27.74;95087.97;5026670;28;20035;-82
2023/04/08 10:40:47;;;;;;;14.63;11.07;;;;;;;19.76;27.77;95088.09;5008794;28;20021;-81
2023/04/08 10:43:13;;;;;;;14.60;11.85;;;;;;;19.87;27.79;95083.38;5026869;28;20487;-89
2023/04/08 10:45:39;;;;;;;14.02;11.25;;;;;;;20.51;27.45;95086.13;5026427;28;20061;-79
2023/04/08 10:48:16;;;;;;;14.15;10.90;;;;;;;20.94;25.99;95087.63;5031338;28;20029;-83
2023/04/08 10:50:42;;;;;;;13.38;11.00;;;;;;;20.63;26.35;95076.53;5025926;28;20026;-82
2023/04/08 10:53:09;;;;;;;13.57;10.90;;;;;;;20.19;25.94;95066.63;5024724;28;20083;-80
2023/04/08 10:55:34;;;;;;;12.85;10.02;;;;;;;20.55;26.83;95058.75;5024770;28;20113;-84
2023/04/08 10:58:06;;;;;;;15.13;10.65;;;;;;;21.32;25.35;95067.94;5024772;28;20132;-82
2023/04/08 11:00:34;;;;;;;14.35;10.63;;;;;;;21.85;24.45;95061.44;5025608;28;20132;-79
2023/04/08 11:03:04;;;;;;;14.02;10.88;;;;;;;21.90;24.18;95063.44;5023980;28;20117;-80
2023/04/08 11:05:30;;;;;;;14.27;10.65;;;;;;;21.30;24.58;95053.72;5025829;28;20108;-84
2023/04/08 11:07:57;;;;;;;15.13;10.98;;;;;;;20.87;25.36;95049.00;5027023;28;20122;-86
2023/04/08 11:10:23;;;;;;;11.93;10.10;;;;;;;20.86;25.48;95047.44;5025553;28;20112;-84
2023/04/08 11:12:48;;;;;;;10.52;9.43;;;;;;;20.70;24.88;95050.94;5024233;28;20104;-90
2023/04/08 11:15:14;;;;;;;12.07;9.77;;;;;;;20.48;25.15;95045.25;5027200;28;20061;-90
2023/04/08 11:17:40;;;;;;;12.45;9.93;;;;;;;19.32;26.47;95047.34;5027865;28;20091;-85
2023/04/08 11:20:07;;;;;;;12.65;10.70;;;;;;;18.57;27.50;95040.63;5024296;28;20026;-85
2023/04/08 11:22:33;;;;;;;12.18;9.85;;;;;;;19.22;27.09;95040.41;5026217;28;20087;-86